sensor_id;sensor_type;location;lat;lon;timestamp;pressure;altitude;pressure_sealevel;temperature;humidity
56825;BME280;42705;50.326;18.772;2023-05-19T00:00:46;99422.95;;;8.94;67.40
56825;BME280;42705;50.326;18.772;2023-05-19T00:06:13;99418.18;;;8.95;67.41
56825;BME280;42705;50.326;18.772;2023-05-19T00:11:36;99412.77;;;8.93;67.64
56825;BME280;42705;50.326;18.772;2023-05-19T00:16:59;99408.67;;;8.89;67.78
56825;BME280;42705;50.326;18.772;2023-05-19T00:22:22;99409.33;;;8.90;67.82
56825;BME280;42705;50.326;18.772;2023-05-19T00:27:44;99415.92;;;8.90;68.25
56825;BME280;42705;50.326;18.772;2023-05-19T00:33:06;99415.91;;;8.93;68.39
56825;BME280;42705;50.326;18.772;2023-05-19T00:38:32;99410.09;;;8.96;68.78
56825;BME280;42705;50.326;18.772;2023-05-19T00:43:54;99398.20;;;9.02;68.84
56825;BME280;42705;50.326;18.772;2023-05-19T00:49:16;99396.95;;;9.07;69.15
56825;BME280;42705;50.326;18.772;2023-05-19T00:54:38;99392.67;;;9.07;68.74
56825;BME280;42705;50.326;18.772;2023-05-19T01:00:02;99392.34;;;9.01;69.12
56825;BME280;42705;50.326;18.772;2023-05-19T01:05:25;99378.48;;;9.03;69.12
56825;BME280;42705;50.326;18.772;2023-05-19T01:10:47;99376.39;;;9.00;69.22
56825;BME280;42705;50.326;18.772;2023-05-19T01:22:02;99365.39;;;8.85;69.58
56825;BME280;42705;50.326;18.772;2023-05-19T01:33:36;99359.27;;;8.70;69.94
56825;BME280;42705;50.326;18.772;2023-05-19T01:39:01;99359.96;;;8.65;70.14
56825;BME280;42705;50.326;18.772;2023-05-19T01:44:25;99359.29;;;8.62;70.07
56825;BME280;42705;50.326;18.772;2023-05-19T01:49:47;99364.73;;;8.59;70.45
56825;BME280;42705;50.326;18.772;2023-05-19T01:55:09;99355.06;;;8.50;70.46
56825;BME280;42705;50.326;18.772;2023-05-19T02:06:46;99365.17;;;8.34;70.98
56825;BME280;42705;50.326;18.772;2023-05-19T02:17:42;99356.27;;;8.34;71.31
56825;BME280;42705;50.326;18.772;2023-05-19T02:23:08;99341.95;;;8.32;71.31
56825;BME280;42705;50.326;18.772;2023-05-19T02:28:30;99330.50;;;8.32;71.41
56825;BME280;42705;50.326;18.772;2023-05-19T02:33:53;99330.77;;;8.25;71.71
56825;BME280;42705;50.326;18.772;2023-05-19T02:39:15;99323.26;;;8.21;71.70
56825;BME280;42705;50.326;18.772;2023-05-19T02:44:38;99324.23;;;8.21;71.68
56825;BME280;42705;50.326;18.772;2023-05-19T02:49:59;99328.36;;;8.24;71.97
56825;BME280;42705;50.326;18.772;2023-05-19T02:55:21;99330.41;;;8.28;72.00
56825;BME280;42705;50.326;18.772;2023-05-19T03:00:43;99333.05;;;8.33;72.08
56825;BME280;42705;50.326;18.772;2023-05-19T03:06:06;99335.52;;;8.37;71.86
56825;BME280;42705;50.326;18.772;2023-05-19T03:11:29;99340.00;;;8.40;72.08
56825;BME280;42705;50.326;18.772;2023-05-19T03:16:51;99340.69;;;8.40;71.87
56825;BME280;42705;50.326;18.772;2023-05-19T03:22:13;99341.38;;;8.41;71.82
56825;BME280;42705;50.326;18.772;2023-05-19T03:27:35;99338.23;;;8.38;71.96
56825;BME280;42705;50.326;18.772;2023-05-19T03:32:57;99344.35;;;8.41;72.03
56825;BME280;42705;50.326;18.772;2023-05-19T03:38:22;99337.60;;;8.45;72.20
56825;BME280;42705;50.326;18.772;2023-05-19T03:43:49;99334.91;;;8.46;72.37
56825;BME280;42705;50.326;18.772;2023-05-19T03:49:11;99338.75;;;8.49;72.26
56825;BME280;42705;50.326;18.772;2023-05-19T03:54:52;99339.54;;;8.53;72.20
56825;BME280;42705;50.326;18.772;2023-05-19T04:00:15;99347.58;;;8.60;72.13
56825;BME280;42705;50.326;18.772;2023-05-19T04:05:37;99348.73;;;8.71;72.15
56825;BME280;42705;50.326;18.772;2023-05-19T04:10:59;99354.92;;;8.83;72.25
56825;BME280;42705;50.326;18.772;2023-05-19T04:16:22;99358.03;;;8.91;72.23
56825;BME280;42705;50.326;18.772;2023-05-19T04:21:44;99356.15;;;9.01;72.28
56825;BME280;42705;50.326;18.772;2023-05-19T04:27:05;99358.51;;;9.11;72.26
56825;BME280;42705;50.326;18.772;2023-05-19T04:32:32;99356.48;;;9.23;72.25
56825;BME280;42705;50.326;18.772;2023-05-19T04:37:55;99359.11;;;9.31;71.79
56825;BME280;42705;50.326;18.772;2023-05-19T04:43:21;99346.77;;;9.33;71.39
56825;BME280;42705;50.326;18.772;2023-05-19T04:48:43;99348.16;;;9.37;71.53
56825;BME280;42705;50.326;18.772;2023-05-19T04:54:08;99353.21;;;9.45;71.45
56825;BME280;42705;50.326;18.772;2023-05-19T04:59:31;99361.23;;;9.57;71.35
56825;BME280;42705;50.326;18.772;2023-05-19T05:04:54;99370.60;;;9.67;71.23
56825;BME280;42705;50.326;18.772;2023-05-19T05:10:17;99373.97;;;9.79;71.46
56825;BME280;42705;50.326;18.772;2023-05-19T05:15:41;99372.62;;;9.92;71.18
56825;BME280;42705;50.326;18.772;2023-05-19T05:21:06;99370.41;;;10.01;70.93
56825;BME280;42705;50.326;18.772;2023-05-19T05:26:31;99368.98;;;10.02;70.51
56825;BME280;42705;50.326;18.772;2023-05-19T05:31:54;99372.70;;;9.94;70.73
56825;BME280;42705;50.326;18.772;2023-05-19T05:37:17;99378.30;;;9.96;70.60
56825;BME280;42705;50.326;18.772;2023-05-19T05:42:39;99372.91;;;10.10;70.86
56825;BME280;42705;50.326;18.772;2023-05-19T05:48:01;99363.16;;;10.26;70.62
56825;BME280;42705;50.326;18.772;2023-05-19T05:53:29;99360.61;;;10.42;70.31
56825;BME280;42705;50.326;18.772;2023-05-19T05:58:53;99363.95;;;10.58;70.43
56825;BME280;42705;50.326;18.772;2023-05-19T06:04:16;99366.84;;;10.72;70.18
56825;BME280;42705;50.326;18.772;2023-05-19T06:09:38;99378.34;;;10.78;70.21
56825;BME280;42705;50.326;18.772;2023-05-19T06:15:04;99390.96;;;10.82;70.21
56825;BME280;42705;50.326;18.772;2023-05-19T06:20:55;99400.52;;;10.92;70.12
56825;BME280;42705;50.326;18.772;2023-05-19T06:26:17;99393.02;;;11.01;69.66
56825;BME280;42705;50.326;18.772;2023-05-19T06:31:40;99394.02;;;11.04;69.64
56825;BME280;42705;50.326;18.772;2023-05-19T06:37:08;99393.66;;;11.19;69.82
56825;BME280;42705;50.326;18.772;2023-05-19T06:42:30;99392.45;;;11.32;69.56
56825;BME280;42705;50.326;18.772;2023-05-19T06:48:01;99396.91;;;11.45;69.30
56825;BME280;42705;50.326;18.772;2023-05-19T06:53:23;99391.19;;;11.57;69.19
56825;BME280;42705;50.326;18.772;2023-05-19T06:58:46;99387.66;;;11.71;68.88
56825;BME280;42705;50.326;18.772;2023-05-19T07:04:08;99386.56;;;11.82;68.72
56825;BME280;42705;50.326;18.772;2023-05-19T07:09:30;99381.89;;;11.95;68.54
56825;BME280;42705;50.326;18.772;2023-05-19T07:14:52;99380.19;;;12.20;68.43
56825;BME280;42705;50.326;18.772;2023-05-19T07:20:14;99373.30;;;12.40;68.20
56825;BME280;42705;50.326;18.772;2023-05-19T07:25:37;99368.02;;;12.42;67.84
56825;BME280;42705;50.326;18.772;2023-05-19T07:30:59;99368.52;;;12.41;67.51
56825;BME280;42705;50.326;18.772;2023-05-19T07:36:22;99368.08;;;12.44;67.51
56825;BME280;42705;50.326;18.772;2023-05-19T07:41:43;99377.02;;;12.50;67.38
56825;BME280;42705;50.326;18.772;2023-05-19T07:47:05;99382.96;;;12.63;67.14
56825;BME280;42705;50.326;18.772;2023-05-19T07:52:27;99384.48;;;12.72;67.06
56825;BME280;42705;50.326;18.772;2023-05-19T07:57:49;99385.86;;;12.78;66.63
56825;BME280;42705;50.326;18.772;2023-05-19T08:03:12;99388.99;;;12.78;66.58
56825;BME280;42705;50.326;18.772;2023-05-19T08:08:34;99394.34;;;12.69;66.48
56825;BME280;42705;50.326;18.772;2023-05-19T08:13:55;99391.41;;;12.60;66.37
56825;BME280;42705;50.326;18.772;2023-05-19T08:19:18;99394.06;;;12.58;66.31
56825;BME280;42705;50.326;18.772;2023-05-19T08:24:39;99393.23;;;12.63;66.26
56825;BME280;42705;50.326;18.772;2023-05-19T08:30:04;99398.58;;;12.73;66.27
56825;BME280;42705;50.326;18.772;2023-05-19T08:35:26;99403.33;;;12.79;66.05
56825;BME280;42705;50.326;18.772;2023-05-19T08:40:48;99400.63;;;12.82;66.04
56825;BME280;42705;50.326;18.772;2023-05-19T08:46:12;99404.80;;;12.86;65.86
56825;BME280;42705;50.326;18.772;2023-05-19T08:57:05;99399.11;;;12.98;65.74
56825;BME280;42705;50.326;18.772;2023-05-19T09:02:27;99391.05;;;13.18;65.64
56825;BME280;42705;50.326;18.772;2023-05-19T09:07:49;99387.49;;;13.47;65.63
56825;BME280;42705;50.326;18.772;2023-05-19T09:13:11;99389.83;;;13.67;65.23
56825;BME280;42705;50.326;18.772;2023-05-19T09:18:37;99394.02;;;13.75;64.82
56825;BME280;42705;50.326;18.772;2023-05-19T09:24:04;99398.27;;;13.84;64.91
56825;BME280;42705;50.326;18.772;2023-05-19T09:29:29;99397.04;;;13.94;64.44
56825;BME280;42705;50.326;18.772;2023-05-19T09:34:54;99394.64;;;13.99;64.08
56825;BME280;42705;50.326;18.772;2023-05-19T09:40:16;99391.25;;;13.92;63.95
56825;BME280;42705;50.326;18.772;2023-05-19T09:45:38;99394.30;;;13.86;63.97
56825;BME280;42705;50.326;18.772;2023-05-19T09:51:01;99391.44;;;13.78;63.90
56825;BME280;42705;50.326;18.772;2023-05-19T09:56:23;99396.75;;;13.68;63.74
56825;BME280;42705;50.326;18.772;2023-05-19T10:01:46;99398.79;;;13.59;63.80
56825;BME280;42705;50.326;18.772;2023-05-19T10:07:09;99399.20;;;13.54;64.11
56825;BME280;42705;50.326;18.772;2023-05-19T10:12:33;99398.84;;;13.60;63.87
56825;BME280;42705;50.326;18.772;2023-05-19T10:17:55;99394.15;;;13.69;63.85
56825;BME280;42705;50.326;18.772;2023-05-19T10:23:17;99389.44;;;13.89;63.86
56825;BME280;42705;50.326;18.772;2023-05-19T10:28:41;99385.42;;;14.04;63.67
56825;BME280;42705;50.326;18.772;2023-05-19T10:39:31;99388.72;;;14.09;63.50
56825;BME280;42705;50.326;18.772;2023-05-19T10:50:25;99387.43;;;14.23;63.14
56825;BME280;42705;50.326;18.772;2023-05-19T10:55:54;99382.38;;;14.42;62.96
56825;BME280;42705;50.326;18.772;2023-05-19T11:01:30;99374.47;;;14.51;62.67
56825;BME280;42705;50.326;18.772;2023-05-19T11:06:53;99372.80;;;14.64;62.59
56825;BME280;42705;50.326;18.772;2023-05-19T11:12:22;99370.88;;;14.81;62.46
56825;BME280;42705;50.326;18.772;2023-05-19T11:17:47;99373.57;;;14.92;62.33
56825;BME280;42705;50.326;18.772;2023-05-19T11:23:14;99374.10;;;14.95;62.12
56825;BME280;42705;50.326;18.772;2023-05-19T11:28:39;99369.73;;;15.02;61.94
56825;BME280;42705;50.326;18.772;2023-05-19T11:34:02;99374.42;;;15.18;61.82
56825;BME280;42705;50.326;18.772;2023-05-19T11:39:27;99374.30;;;15.34;61.64
56825;BME280;42705;50.326;18.772;2023-05-19T11:44:54;99369.60;;;15.30;61.29
56825;BME280;42705;50.326;18.772;2023-05-19T11:50:16;99370.80;;;15.34;61.31
56825;BME280;42705;50.326;18.772;2023-05-19T11:55:44;99367.16;;;15.41;61.26
56825;BME280;42705;50.326;18.772;2023-05-19T12:01:06;99364.64;;;15.45;61.12
56825;BME280;42705;50.326;18.772;2023-05-19T12:06:28;99368.59;;;15.33;61.04
56825;BME280;42705;50.326;18.772;2023-05-19T12:11:50;99373.56;;;15.20;61.13
56825;BME280;42705;50.326;18.772;2023-05-19T12:17:18;99375.74;;;15.10;61.45
56825;BME280;42705;50.326;18.772;2023-05-19T12:22:40;99373.23;;;15.11;61.60
56825;BME280;42705;50.326;18.772;2023-05-19T12:28:03;99367.50;;;15.21;61.55
56825;BME280;42705;50.326;18.772;2023-05-19T12:33:25;99362.14;;;15.32;61.47
56825;BME280;42705;50.326;18.772;2023-05-19T12:38:52;99356.73;;;15.38;61.41
56825;BME280;42705;50.326;18.772;2023-05-19T12:44:15;99351.30;;;15.43;61.33
56825;BME280;42705;50.326;18.772;2023-05-19T12:49:51;99347.62;;;15.41;61.23
56825;BME280;42705;50.326;18.772;2023-05-19T12:55:14;99347.46;;;15.35;61.52
56825;BME280;42705;50.326;18.772;2023-05-19T13:00:41;99351.33;;;15.42;61.60
56825;BME280;42705;50.326;18.772;2023-05-19T13:06:05;99348.48;;;15.56;61.30
56825;BME280;42705;50.326;18.772;2023-05-19T13:11:27;99352.89;;;15.68;61.32
56825;BME280;42705;50.326;18.772;2023-05-19T13:16:49;99346.77;;;15.73;60.96
56825;BME280;42705;50.326;18.772;2023-05-19T13:22:12;99343.28;;;15.75;61.25
56825;BME280;42705;50.326;18.772;2023-05-19T13:27:34;99339.59;;;15.65;60.82
56825;BME280;42705;50.326;18.772;2023-05-19T13:32:57;99338.18;;;15.55;61.09
56825;BME280;42705;50.326;18.772;2023-05-19T13:38:19;99332.91;;;15.53;61.23
56825;BME280;42705;50.326;18.772;2023-05-19T13:43:41;99329.39;;;15.55;61.42
56825;BME280;42705;50.326;18.772;2023-05-19T13:49:03;99326.05;;;15.51;61.09
56825;BME280;42705;50.326;18.772;2023-05-19T13:54:26;99321.56;;;15.54;61.10
56825;BME280;42705;50.326;18.772;2023-05-19T13:59:48;99321.09;;;15.49;61.27
56825;BME280;42705;50.326;18.772;2023-05-19T14:05:10;99324.38;;;15.44;61.49
56825;BME280;42705;50.326;18.772;2023-05-19T14:10:32;99324.02;;;15.48;61.41
56825;BME280;42705;50.326;18.772;2023-05-19T14:15:53;99330.80;;;15.56;61.50
56825;BME280;42705;50.326;18.772;2023-05-19T14:21:15;99332.63;;;15.57;61.55
56825;BME280;42705;50.326;18.772;2023-05-19T14:26:37;99336.89;;;15.52;61.49
56825;BME280;42705;50.326;18.772;2023-05-19T14:31:59;99341.52;;;15.48;61.43
56825;BME280;42705;50.326;18.772;2023-05-19T14:37:21;99343.09;;;15.46;61.33
56825;BME280;42705;50.326;18.772;2023-05-19T14:42:43;99339.85;;;15.47;61.42
56825;BME280;42705;50.326;18.772;2023-05-19T14:48:05;99337.57;;;15.50;61.52
56825;BME280;42705;50.326;18.772;2023-05-19T14:53:27;99338.02;;;15.55;61.54
56825;BME280;42705;50.326;18.772;2023-05-19T14:58:49;99338.27;;;15.57;61.46
56825;BME280;42705;50.326;18.772;2023-05-19T15:04:11;99337.11;;;15.57;61.34
56825;BME280;42705;50.326;18.772;2023-05-19T15:09:32;99335.23;;;15.43;61.25
56825;BME280;42705;50.326;18.772;2023-05-19T15:14:55;99335.50;;;15.37;61.61
56825;BME280;42705;50.326;18.772;2023-05-19T15:20:17;99331.34;;;15.34;61.59
56825;BME280;42705;50.326;18.772;2023-05-19T15:25:39;99330.42;;;15.24;61.42
56825;BME280;42705;50.326;18.772;2023-05-19T15:31:01;99335.52;;;15.11;61.99
56825;BME280;42705;50.326;18.772;2023-05-19T15:36:24;99333.30;;;14.99;62.12
56825;BME280;42705;50.326;18.772;2023-05-19T15:41:46;99331.86;;;14.94;62.45
56825;BME280;42705;50.326;18.772;2023-05-19T15:47:07;99333.60;;;14.94;62.60
56825;BME280;42705;50.326;18.772;2023-05-19T15:52:29;99326.79;;;14.92;62.70
56825;BME280;42705;50.326;18.772;2023-05-19T15:57:51;99324.84;;;14.88;62.71
56825;BME280;42705;50.326;18.772;2023-05-19T16:03:13;99326.95;;;14.90;63.05
56825;BME280;42705;50.326;18.772;2023-05-19T16:08:35;99325.21;;;14.93;63.02
56825;BME280;42705;50.326;18.772;2023-05-19T16:13:58;99325.70;;;14.90;62.94
56825;BME280;42705;50.326;18.772;2023-05-19T16:19:20;99329.48;;;14.82;63.11
56825;BME280;42705;50.326;18.772;2023-05-19T16:24:42;99338.77;;;14.69;63.07
56825;BME280;42705;50.326;18.772;2023-05-19T16:30:05;99343.93;;;14.53;63.19
56825;BME280;42705;50.326;18.772;2023-05-19T16:35:27;99353.02;;;14.40;63.46
56825;BME280;42705;50.326;18.772;2023-05-19T16:40:49;99361.95;;;14.29;63.72
56825;BME280;42705;50.326;18.772;2023-05-19T16:46:11;99359.44;;;14.20;63.90
56825;BME280;42705;50.326;18.772;2023-05-19T16:51:33;99348.89;;;14.10;63.96
56825;BME280;42705;50.326;18.772;2023-05-19T16:56:56;99353.23;;;13.99;64.20
56825;BME280;42705;50.326;18.772;2023-05-19T17:02:18;99359.19;;;13.97;64.25
56825;BME280;42705;50.326;18.772;2023-05-19T17:07:40;99356.74;;;13.97;64.78
56825;BME280;42705;50.326;18.772;2023-05-19T17:13:02;99349.82;;;13.88;64.59
56825;BME280;42705;50.326;18.772;2023-05-19T17:18:24;99350.35;;;13.74;64.85
56825;BME280;42705;50.326;18.772;2023-05-19T17:23:46;99355.42;;;13.53;65.03
56825;BME280;42705;50.326;18.772;2023-05-19T17:29:08;99354.52;;;13.41;65.26
56825;BME280;42705;50.326;18.772;2023-05-19T17:34:30;99354.51;;;13.39;65.67
56825;BME280;42705;50.326;18.772;2023-05-19T17:39:52;99359.06;;;13.35;65.85
56825;BME280;42705;50.326;18.772;2023-05-19T17:45:13;99361.38;;;13.24;66.02
56825;BME280;42705;50.326;18.772;2023-05-19T17:50:35;99360.23;;;13.22;66.28
56825;BME280;42705;50.326;18.772;2023-05-19T17:55:59;99359.98;;;13.19;66.34
56825;BME280;42705;50.326;18.772;2023-05-19T18:01:21;99366.83;;;13.12;66.59
56825;BME280;42705;50.326;18.772;2023-05-19T18:06:47;99368.10;;;13.08;66.84
56825;BME280;42705;50.326;18.772;2023-05-19T18:12:12;99375.58;;;13.10;67.12
56825;BME280;42705;50.326;18.772;2023-05-19T18:17:34;99382.02;;;13.15;67.31
56825;BME280;42705;50.326;18.772;2023-05-19T18:22:56;99382.75;;;13.10;67.15
56825;BME280;42705;50.326;18.772;2023-05-19T18:28:22;99382.46;;;13.00;67.27
56825;BME280;42705;50.326;18.772;2023-05-19T18:33:45;99386.34;;;12.89;67.27
56825;BME280;42705;50.326;18.772;2023-05-19T18:39:07;99391.00;;;12.82;67.71
56825;BME280;42705;50.326;18.772;2023-05-19T18:44:29;99392.85;;;12.74;67.77
56825;BME280;42705;50.326;18.772;2023-05-19T18:49:51;99397.86;;;12.67;67.95
56825;BME280;42705;50.326;18.772;2023-05-19T18:55:14;99402.54;;;12.66;68.17
56825;BME280;42705;50.326;18.772;2023-05-19T19:00:36;99405.86;;;12.67;68.55
56825;BME280;42705;50.326;18.772;2023-05-19T19:05:59;99404.77;;;12.70;68.72
56825;BME280;42705;50.326;18.772;2023-05-19T19:11:21;99409.48;;;12.72;68.88
56825;BME280;42705;50.326;18.772;2023-05-19T19:16:43;99413.71;;;12.76;68.77
56825;BME280;42705;50.326;18.772;2023-05-19T19:22:05;99415.14;;;12.78;69.02
56825;BME280;42705;50.326;18.772;2023-05-19T19:27:27;99412.08;;;12.77;68.82
56825;BME280;42705;50.326;18.772;2023-05-19T19:32:52;99411.90;;;12.73;68.92
56825;BME280;42705;50.326;18.772;2023-05-19T19:38:15;99411.29;;;12.68;68.66
56825;BME280;42705;50.326;18.772;2023-05-19T19:43:39;99408.33;;;12.61;68.91
56825;BME280;42705;50.326;18.772;2023-05-19T19:49:02;99406.30;;;12.56;69.11
56825;BME280;42705;50.326;18.772;2023-05-19T19:54:24;99401.11;;;12.47;69.23
56825;BME280;42705;50.326;18.772;2023-05-19T19:59:46;99403.58;;;12.38;69.26
56825;BME280;42705;50.326;18.772;2023-05-19T20:05:15;99407.34;;;12.29;69.44
56825;BME280;42705;50.326;18.772;2023-05-19T20:10:38;99410.54;;;12.22;69.55
56825;BME280;42705;50.326;18.772;2023-05-19T20:16:00;99409.35;;;12.17;69.82
56825;BME280;42705;50.326;18.772;2023-05-19T20:21:22;99404.25;;;12.15;70.00
56825;BME280;42705;50.326;18.772;2023-05-19T20:26:44;99404.48;;;12.10;70.04
56825;BME280;42705;50.326;18.772;2023-05-19T20:32:06;99405.42;;;12.03;70.18
56825;BME280;42705;50.326;18.772;2023-05-19T20:37:28;99402.73;;;12.04;70.31
56825;BME280;42705;50.326;18.772;2023-05-19T20:42:50;99400.80;;;12.04;70.29
56825;BME280;42705;50.326;18.772;2023-05-19T20:48:12;99398.20;;;11.99;70.51
56825;BME280;42705;50.326;18.772;2023-05-19T20:53:36;99405.27;;;11.94;70.73
56825;BME280;42705;50.326;18.772;2023-05-19T20:58:58;99403.61;;;11.92;70.62
56825;BME280;42705;50.326;18.772;2023-05-19T21:04:20;99399.36;;;11.88;70.68
56825;BME280;42705;50.326;18.772;2023-05-19T21:09:43;99402.96;;;11.81;70.78
56825;BME280;42705;50.326;18.772;2023-05-19T21:15:08;99410.98;;;11.77;71.09
56825;BME280;42705;50.326;18.772;2023-05-19T21:20:30;99404.66;;;11.78;71.22
56825;BME280;42705;50.326;18.772;2023-05-19T21:25:52;99409.63;;;11.77;71.21
56825;BME280;42705;50.326;18.772;2023-05-19T21:31:14;99411.05;;;11.73;71.50
56825;BME280;42705;50.326;18.772;2023-05-19T21:36:36;99414.36;;;11.78;71.55
56825;BME280;42705;50.326;18.772;2023-05-19T21:41:58;99409.18;;;11.84;71.53
56825;BME280;42705;50.326;18.772;2023-05-19T21:47:21;99408.05;;;11.90;71.53
56825;BME280;42705;50.326;18.772;2023-05-19T21:52:45;99405.09;;;11.98;71.76
56825;BME280;42705;50.326;18.772;2023-05-19T21:58:07;99404.07;;;12.02;71.47
56825;BME280;42705;50.326;18.772;2023-05-19T22:03:29;99406.30;;;12.03;71.48
56825;BME280;42705;50.326;18.772;2023-05-19T22:08:51;99407.80;;;12.02;71.43
56825;BME280;42705;50.326;18.772;2023-05-19T22:14:13;99408.73;;;12.07;71.32
56825;BME280;42705;50.326;18.772;2023-05-19T22:19:35;99412.24;;;12.09;71.42
56825;BME280;42705;50.326;18.772;2023-05-19T22:24:57;99409.74;;;12.03;71.26
56825;BME280;42705;50.326;18.772;2023-05-19T22:30:19;99413.64;;;12.03;71.45
56825;BME280;42705;50.326;18.772;2023-05-19T22:35:41;99411.77;;;11.98;71.37
56825;BME280;42705;50.326;18.772;2023-05-19T22:41:03;99408.89;;;11.92;71.30
56825;BME280;42705;50.326;18.772;2023-05-19T22:46:25;99404.49;;;11.92;71.40
56825;BME280;42705;50.326;18.772;2023-05-19T22:51:47;99402.38;;;11.86;71.43
56825;BME280;42705;50.326;18.772;2023-05-19T22:57:09;99397.67;;;11.81;71.52
56825;BME280;42705;50.326;18.772;2023-05-19T23:02:31;99402.17;;;11.76;71.63
56825;BME280;42705;50.326;18.772;2023-05-19T23:07:53;99392.89;;;11.75;71.59
56825;BME280;42705;50.326;18.772;2023-05-19T23:13:15;99386.42;;;11.69;71.75
56825;BME280;42705;50.326;18.772;2023-05-19T23:18:38;99378.71;;;11.63;71.78
56825;BME280;42705;50.326;18.772;2023-05-19T23:23:59;99382.77;;;11.55;71.98
56825;BME280;42705;50.326;18.772;2023-05-19T23:29:21;99389.20;;;11.45;71.79
56825;BME280;42705;50.326;18.772;2023-05-19T23:34:46;99387.91;;;11.35;72.20
56825;BME280;42705;50.326;18.772;2023-05-19T23:40:08;99377.25;;;11.34;72.42
56825;BME280;42705;50.326;18.772;2023-05-19T23:45:31;99364.90;;;11.38;72.52
56825;BME280;42705;50.326;18.772;2023-05-19T23:50:52;99366.45;;;11.34;72.46
56825;BME280;42705;50.326;18.772;2023-05-19T23:56:14;99365.42;;;11.34;72.50
